createdAt,value
2018-07-16T00:08:47.873Z,28.98
2018-07-16T00:18:51.017Z,29.41
2018-07-16T00:28:54.140Z,29.49
2018-07-16T00:38:57.101Z,29.58
2018-07-16T00:49:00.246Z,29.48
2018-07-16T00:59:03.359Z,29.45
2018-07-16T01:09:06.681Z,29.36
2018-07-16T01:19:09.687Z,29.36
2018-07-16T01:29:12.802Z,29.32
2018-07-16T01:39:15.934Z,29.18
2018-07-16T01:49:19.119Z,29.27
2018-07-16T01:59:22.101Z,29.21
2018-07-16T02:09:25.141Z,29.13
2018-07-16T02:19:28.277Z,29.12
2018-07-16T02:29:31.466Z,28.87
2018-07-16T02:39:34.455Z,29.10
2018-07-16T02:49:37.524Z,29.07
2018-07-16T02:59:40.610Z,28.87
2018-07-16T03:09:43.621Z,28.89
2018-07-16T03:19:46.701Z,28.93
2018-07-16T03:29:49.658Z,28.87
2018-07-16T03:39:52.795Z,28.39
2018-07-16T03:49:55.952Z,27.95
2018-07-16T03:59:58.938Z,28.76
2018-07-16T04:10:01.907Z,28.84
2018-07-16T04:20:05.019Z,28.81
2018-07-16T04:30:07.991Z,28.64
2018-07-16T04:40:11.010Z,28.69
2018-07-16T04:50:14.153Z,28.72
2018-07-16T05:00:17.304Z,28.85
2018-07-16T05:10:20.422Z,28.89
2018-07-16T05:20:23.574Z,28.98
2018-07-16T05:30:26.560Z,28.88
2018-07-16T05:40:29.654Z,28.91
2018-07-16T05:50:32.797Z,28.85
2018-07-16T06:00:35.927Z,29.06
2018-07-16T06:10:39.090Z,29.15
2018-07-16T06:20:42.233Z,28.65
2018-07-16T06:30:45.366Z,28.67
2018-07-16T06:40:49.661Z,28.71
2018-07-16T06:50:52.970Z,28.72
2018-07-16T07:00:55.999Z,28.80
2018-07-16T07:10:59.187Z,27.66
2018-07-16T07:21:02.270Z,28.40
2018-07-16T07:31:05.468Z,28.05
2018-07-16T07:41:08.592Z,27.77
2018-07-16T07:51:11.685Z,28.63
2018-07-16T08:01:14.862Z,28.80
2018-07-16T08:11:17.988Z,29.08
2018-07-16T08:21:20.949Z,28.68
2018-07-16T08:31:24.022Z,29.03
2018-07-16T08:41:27.193Z,29.04
2018-07-16T08:51:30.792Z,29.45
2018-07-16T09:01:33.936Z,30.46
2018-07-16T09:11:37.015Z,30.48
2018-07-16T09:21:39.995Z,30.95
2018-07-16T09:31:42.933Z,29.72
2018-07-16T09:41:46.064Z,31.15
2018-07-16T09:51:49.012Z,30.68
2018-07-16T10:01:57.380Z,30.35
2018-07-16T10:12:00.358Z,30.01
2018-07-16T10:22:03.463Z,31.16
2018-07-16T10:32:06.715Z,31.59
2018-07-16T10:42:09.790Z,30.88
2018-07-16T10:52:13.209Z,30.88
2018-07-16T11:02:16.161Z,31.94
2018-07-16T11:12:19.239Z,31.40
2018-07-16T11:22:22.337Z,31.89
2018-07-16T11:32:25.273Z,32.08
2018-07-16T11:42:28.279Z,31.57
2018-07-16T11:52:31.349Z,32.01
2018-07-16T12:02:34.317Z,32.14
2018-07-16T12:12:37.389Z,32.24
2018-07-16T12:22:40.361Z,32.26
2018-07-16T12:32:43.335Z,32.80
2018-07-16T12:42:46.425Z,32.32
2018-07-16T12:52:49.578Z,33.00
2018-07-16T13:02:52.723Z,33.06
2018-07-16T13:12:55.893Z,33.01
2018-07-16T13:22:58.982Z,32.89
2018-07-16T13:33:02.151Z,33.24
2018-07-16T13:43:05.254Z,32.84
2018-07-16T13:53:08.395Z,33.42
2018-07-16T14:03:11.890Z,32.83
2018-07-16T14:13:14.854Z,33.68
2018-07-16T14:23:17.833Z,33.48
2018-07-16T14:33:20.942Z,33.54
2018-07-16T14:43:23.909Z,32.96
2018-07-16T14:53:27.066Z,33.50
2018-07-16T15:03:30.174Z,33.54
2018-07-16T15:13:33.323Z,34.14
2018-07-16T15:23:36.460Z,34.10
2018-07-16T15:33:39.592Z,33.64
2018-07-16T15:43:42.919Z,34.15
2018-07-16T15:53:46.000Z,33.82
2018-07-16T16:03:51.712Z,33.89
2018-07-16T16:13:54.762Z,33.11
2018-07-16T16:23:57.730Z,33.46
2018-07-16T16:34:00.698Z,33.59
2018-07-16T16:44:03.682Z,33.49
2018-07-16T16:54:06.705Z,33.53
2018-07-16T17:04:09.662Z,33.72
2018-07-16T17:14:12.641Z,33.41
2018-07-16T17:24:15.628Z,33.75
2018-07-16T17:34:18.611Z,33.50
2018-07-16T17:44:21.579Z,33.73
2018-07-16T17:54:24.529Z,33.92
2018-07-16T18:04:27.531Z,33.74
2018-07-16T18:14:30.679Z,33.57
2018-07-16T18:24:33.633Z,33.56
2018-07-16T18:34:36.829Z,33.70
2018-07-16T18:44:39.937Z,33.47
2018-07-16T18:54:42.931Z,33.42
2018-07-16T19:04:45.891Z,33.29
2018-07-16T19:14:48.906Z,33.31
2018-07-16T19:24:51.894Z,33.25
2018-07-16T19:34:54.873Z,33.17
2018-07-16T19:44:57.876Z,33.14
2018-07-16T19:55:00.803Z,33.26
2018-07-16T20:05:03.829Z,31.39
2018-07-16T20:15:08.427Z,31.09
2018-07-16T20:25:11.299Z,30.98
2018-07-16T20:35:15.052Z,30.88
2018-07-16T20:45:18.154Z,30.92
2018-07-16T20:55:21.114Z,30.63
2018-07-16T21:05:24.419Z,30.67
2018-07-16T21:15:27.699Z,30.67
2018-07-16T21:25:30.746Z,30.55
2018-07-16T21:35:33.944Z,30.56
2018-07-16T21:45:37.054Z,30.44
2018-07-16T21:55:40.295Z,30.58
2018-07-16T22:05:43.283Z,30.50
2018-07-16T22:15:46.414Z,30.32
2018-07-16T22:25:49.377Z,30.33
2018-07-16T22:35:52.313Z,30.36
2018-07-16T22:45:55.411Z,30.37
2018-07-16T22:55:58.363Z,30.31
2018-07-16T23:06:01.306Z,30.43
2018-07-16T23:16:04.738Z,30.21
2018-07-16T23:26:07.689Z,30.31
2018-07-16T23:36:10.689Z,30.19
2018-07-16T23:46:13.722Z,30.31
2018-07-16T23:56:16.678Z,30.16
